createdAt,value
2019-04-01T13:06:43.062Z,41.400146
2019-04-01T13:08:01.763Z,42.010498
2019-04-01T13:09:15.487Z,40.386963
2019-04-01T13:10:29.222Z,40.386963
2019-04-01T13:11:42.959Z,38.873291
2019-04-01T13:12:56.732Z,41.278076
2019-04-01T13:14:10.459Z,38.244629
2019-04-01T13:15:24.175Z,40.167236
2019-04-01T13:16:37.892Z,39.764404
2019-04-01T13:17:51.635Z,38.62915
2019-04-01T13:19:05.360Z,40.454102
2019-04-01T13:20:19.110Z,39.239502
2019-04-01T13:21:34.665Z,39.239502
2019-04-01T13:22:47.559Z,38.934326
2019-04-01T13:24:01.309Z,40.856934
2019-04-01T13:25:15.051Z,36.206055
2019-04-01T13:26:30.278Z,38.208008
2019-04-01T13:27:43.364Z,38.513184
2019-04-01T13:28:57.119Z,39.422607
2019-04-01T13:30:10.887Z,37.298584
2019-04-01T13:31:26.366Z,41.949463
2019-04-01T13:32:40.122Z,40.936279
2019-04-01T13:33:53.849Z,39.440918
2019-04-01T13:35:07.578Z,41.259766
2019-04-01T13:36:21.537Z,37.316895
2019-04-01T13:37:35.051Z,38.330078
2019-04-01T13:38:49.798Z,37.823486
2019-04-01T13:40:04.552Z,38.916016
2019-04-01T13:41:18.295Z,41.040039
2019-04-01T13:42:33.048Z,37.097168
2019-04-01T13:43:46.806Z,39.727783
2019-04-01T13:45:01.895Z,39.318848
2019-04-01T13:46:14.267Z,40.936279
2019-04-01T13:47:27.989Z,42.053223
2019-04-01T13:48:56.403Z,37.823486
2019-04-01T13:49:57.450Z,40.246582
2019-04-01T13:51:11.703Z,39.94751
2019-04-01T13:52:25.435Z,38.934326
2019-04-01T13:53:39.216Z,35.699463
2019-04-01T13:54:52.949Z,38.024902
2019-04-01T13:56:10.035Z,41.766357
2019-04-01T13:57:20.401Z,41.870117
2019-04-01T13:58:34.162Z,39.642334
2019-04-01T13:59:49.310Z,41.162109
2019-04-01T14:01:01.594Z,38.62915
2019-04-01T14:02:15.334Z,40.936279
2019-04-01T14:03:30.061Z,35.27832
2019-04-01T14:04:43.800Z,37.5
2019-04-01T14:05:57.526Z,36.993408
2019-04-01T14:07:11.258Z,39.422607
2019-04-01T14:08:24.990Z,36.49292
2019-04-01T14:09:38.716Z,39.019775
2019-04-01T14:10:54.422Z,38.006592
2019-04-01T14:12:08.236Z,39.117432
2019-04-01T14:13:21.995Z,38.818359
2019-04-01T14:14:35.785Z,38.409424
2019-04-01T14:15:51.314Z,38.110352
2019-04-01T14:17:03.268Z,39.318848
2019-04-01T14:18:17.054Z,38.006592
2019-04-01T14:19:30.899Z,37.384033
2019-04-01T14:20:44.663Z,39.001465
2019-04-01T14:21:58.441Z,38.818359
2019-04-01T14:23:12.165Z,40.637207
2019-04-01T14:24:25.903Z,34.265137
2019-04-01T14:25:39.635Z,38.409424
2019-04-01T14:26:56.447Z,39.929199
2019-04-01T14:28:07.086Z,36.49292
2019-04-01T14:29:20.840Z,36.071777
2019-04-01T14:30:36.148Z,35.565186
2019-04-01T14:31:48.280Z,36.877441
2019-04-01T14:33:02.887Z,36.572266
2019-04-01T14:34:22.759Z,36.273193
2019-04-01T14:35:29.457Z,36.572266
2019-04-01T14:36:43.184Z,38.800049
2019-04-01T14:37:58.276Z,35.968018
2019-04-01T14:39:10.652Z,35.968018
2019-04-01T14:40:24.379Z,36.572266
2019-04-01T14:41:38.107Z,35.864258
2019-04-01T14:42:51.852Z,36.572266
2019-04-01T14:44:05.577Z,39.501953
2019-04-01T14:45:19.304Z,35.968018
2019-04-01T14:46:33.024Z,35.162354
2019-04-01T14:47:56.921Z,37.280273
2019-04-01T14:49:02.736Z,34.857178
2019-04-01T14:50:15.164Z,36.572266
2019-04-01T14:51:28.884Z,36.37085
2019-04-01T14:52:42.601Z,37.078857
2019-04-01T14:53:56.337Z,35.565186
2019-04-01T14:55:10.117Z,36.676025
2019-04-01T14:56:23.858Z,37.988281
2019-04-01T14:57:37.601Z,38.293457
2019-04-01T14:58:52.889Z,38.800049
2019-04-01T15:00:05.063Z,36.572266
2019-04-01T15:01:18.794Z,37.280273
2019-04-01T15:02:33.520Z,37.683105
2019-04-01T15:03:47.243Z,39.910889
2019-04-01T15:05:04.566Z,39.910889
2019-04-01T15:06:14.809Z,36.981201
2019-04-01T15:07:28.430Z,39.404297
2019-04-01T15:08:42.150Z,39.300537
2019-04-01T15:09:55.887Z,39.788818
2019-04-01T15:11:09.628Z,39.605713
2019-04-01T15:12:23.343Z,41.223145
2019-04-01T15:13:37.083Z,38.391113
2019-04-01T15:14:50.827Z,37.182617
2019-04-01T15:16:04.555Z,39.990234
2019-04-01T15:17:18.278Z,41.809082
2019-04-01T15:18:34.257Z,39.685059
2019-04-01T15:19:48.482Z,37.768555
2019-04-01T15:20:59.475Z,38.983154
2019-04-01T15:22:14.174Z,40.594482
2019-04-01T15:23:28.889Z,38.07373
2019-04-01T15:24:42.616Z,36.761475
2019-04-01T15:25:56.352Z,36.761475
2019-04-01T15:27:10.061Z,36.859131
2019-04-01T15:28:24.792Z,37.872314
2019-04-01T15:29:39.519Z,34.637451
2019-04-01T15:30:53.284Z,38.476562
2019-04-01T15:32:07.000Z,38.476562
2019-04-01T15:33:21.242Z,39.685059
2019-04-01T15:34:34.451Z,38.171387
2019-04-01T15:35:48.188Z,37.969971
2019-04-01T15:37:01.916Z,39.685059
2019-04-01T15:38:16.645Z,37.280273
2019-04-01T15:39:30.357Z,35.650635
2019-04-01T15:40:44.093Z,38.275146
2019-04-01T15:41:58.808Z,41.809082
2019-04-01T15:43:12.510Z,41.906738
2019-04-01T15:44:29.146Z,36.053467
2019-04-01T15:45:40.943Z,41.607666
2019-04-01T15:46:54.674Z,38.592529
2019-04-01T15:48:08.376Z,39.202881
2019-04-01T15:49:22.098Z,40.209961
2019-04-01T15:50:35.836Z,39.300537
2019-04-01T15:51:49.562Z,42.431641
2019-04-01T15:53:03.269Z,40.008545
2019-04-01T15:54:16.995Z,41.931152
2019-04-01T15:55:31.662Z,41.137695
2019-04-01T15:56:44.474Z,38.513184
2019-04-01T15:57:58.189Z,42.352295
2019-04-01T15:59:11.916Z,38.61084
2019-04-01T16:00:25.660Z,37.701416
2019-04-01T16:01:39.389Z,39.624023
2019-04-01T16:02:53.110Z,37.097168
2019-04-01T16:04:08.457Z,40.435791
2019-04-01T16:05:20.597Z,36.895752
2019-04-01T16:06:34.313Z,41.241455
2019-04-01T16:07:48.084Z,39.422607
2019-04-01T16:09:01.873Z,41.241455
2019-04-01T16:10:15.628Z,39.727783
2019-04-01T16:11:30.421Z,43.365479
2019-04-01T16:12:45.074Z,38.208008
2019-04-01T16:13:57.948Z,39.318848
2019-04-01T16:15:11.678Z,44.073486
2019-04-01T16:16:25.489Z,41.137695
2019-04-01T16:17:39.246Z,38.110352
2019-04-01T16:18:53.034Z,42.858887
2019-04-01T16:20:06.834Z,38.513184
2019-04-01T16:21:20.562Z,39.825439
2019-04-01T16:22:34.329Z,41.363525
2019-04-01T16:23:48.036Z,39.84375
2019-04-01T16:25:01.780Z,39.135742
2019-04-01T16:26:16.518Z,39.538574
2019-04-01T16:27:30.247Z,40.753174
2019-04-01T16:28:44.976Z,41.766357
2019-04-01T16:29:58.708Z,40.655518
2019-04-01T16:31:12.449Z,40.148926
2019-04-01T16:32:26.168Z,39.862061
2019-04-01T16:33:39.894Z,44.519043
2019-04-01T16:34:53.627Z,41.888428
2019-04-01T16:36:07.383Z,40.673828
2019-04-01T16:37:21.107Z,39.862061
2019-04-01T16:38:34.843Z,40.490723
2019-04-01T16:39:48.880Z,38.262939
2019-04-01T16:41:02.357Z,40.795898
2019-04-01T16:42:16.090Z,41.094971
2019-04-01T16:43:29.819Z,43.023682
2019-04-01T16:44:44.072Z,39.599609
2019-04-01T16:45:57.332Z,38.787842
2019-04-01T16:47:14.312Z,42.028809
2019-04-01T16:48:24.798Z,41.418457
2019-04-01T16:49:38.513Z,42.132568
2019-04-01T16:50:52.249Z,41.723633
2019-04-01T16:52:06.047Z,41.217041
2019-04-01T16:53:19.756Z,40.72876
2019-04-01T16:54:33.480Z,43.469238
2019-04-01T16:55:47.205Z,40.429688
2019-04-01T16:57:00.939Z,40.936279
2019-04-01T16:58:14.689Z,40.631104
2019-04-01T16:59:28.591Z,42.962646
2019-04-01T17:00:42.140Z,41.137695
2019-04-01T17:01:57.676Z,41.235352
2019-04-01T17:03:13.294Z,42.248535
2019-04-01T17:04:24.366Z,39.819336
2019-04-01T17:05:38.130Z,40.039062
2019-04-01T17:06:51.874Z,42.877197
2019-04-01T17:08:05.665Z,43.487549
2019-04-01T17:09:19.381Z,42.980957
2019-04-01T17:10:33.477Z,41.357422
2019-04-01T17:11:46.852Z,41.864014
2019-04-01T17:13:01.703Z,46.124268
2019-04-01T17:14:16.265Z,42.1875
2019-04-01T17:15:29.980Z,42.596436
2019-04-01T17:16:43.769Z,43.103027
2019-04-01T17:17:57.515Z,43.408203
2019-04-01T17:19:11.254Z,43.530273
2019-04-01T17:20:24.985Z,43.530273
2019-04-01T17:21:39.709Z,43.731689
2019-04-01T17:22:53.476Z,43.023682
2019-04-01T17:24:07.182Z,42.816162
2019-04-01T17:25:20.906Z,44.055176
2019-04-01T17:26:34.624Z,46.392822
2019-04-01T17:27:48.417Z,47.302246
2019-04-01T17:29:02.143Z,45.172119
2019-04-01T17:30:15.872Z,46.917725
2019-04-01T17:31:29.599Z,44.281006
2019-04-01T17:32:43.334Z,43.670654
2019-04-01T17:33:57.065Z,47.528076
2019-04-01T17:35:10.793Z,46.105957
2019-04-01T17:36:24.526Z,46.026611
2019-04-01T17:37:38.429Z,45.825195
2019-04-01T17:38:52.010Z,47.55249
2019-04-01T17:40:05.743Z,45.928955
2019-04-01T17:41:20.459Z,47.44873
2019-04-01T17:42:34.199Z,48.284912
2019-04-01T17:43:48.912Z,47.979736
2019-04-01T17:45:02.634Z,47.576904
2019-04-01T17:46:16.384Z,47.77832
2019-04-01T17:47:30.115Z,47.595215
2019-04-01T17:48:43.821Z,47.290039
2019-04-01T17:49:57.546Z,47.009277
2019-04-01T17:51:11.269Z,47.314453
2019-04-01T17:52:25.353Z,47.210693
2019-04-01T17:53:38.871Z,48.22998
2019-04-01T17:54:53.593Z,47.338867
2019-04-01T17:56:07.309Z,48.55957
2019-04-01T17:57:21.040Z,48.55957
2019-04-01T17:58:34.795Z,47.845459
2019-04-01T17:59:48.509Z,49.066162
2019-04-01T18:01:02.237Z,49.267578
2019-04-01T18:02:15.962Z,49.194336
2019-04-01T18:03:29.702Z,48.175049
2019-04-01T18:04:43.427Z,48.480225
2019-04-01T18:05:57.144Z,49.194336
2019-04-01T18:07:10.875Z,48.480225
2019-04-01T18:08:25.599Z,49.420166
2019-04-01T18:09:39.310Z,49.11499
2019-04-01T18:10:53.055Z,49.01123
2019-04-01T18:12:06.770Z,47.583008
2019-04-01T18:13:21.267Z,49.621582
2019-04-01T18:14:34.270Z,48.907471
2019-04-01T18:15:48.002Z,49.237061
2019-04-01T18:17:01.705Z,49.44458
2019-04-01T18:18:26.000Z,49.645996
2019-04-01T18:19:30.139Z,48.931885
2019-04-01T18:20:43.881Z,49.847412
2019-04-01T18:21:57.602Z,48.651123
2019-04-01T18:23:12.368Z,49.975586
2019-04-01T18:24:26.088Z,49.871826
2019-04-01T18:25:39.824Z,49.975586
2019-04-01T18:26:53.559Z,50.585938
2019-04-01T18:28:07.320Z,49.157715
2019-04-01T18:29:21.368Z,50.177002
2019-04-01T18:30:35.524Z,50.482178
2019-04-01T18:31:48.867Z,49.975586
2019-04-01T18:33:02.592Z,50.408936
2019-04-01T18:34:16.333Z,50.408936
2019-04-01T18:35:31.083Z,49.79248
2019-04-01T18:36:45.823Z,49.591064
2019-04-01T18:37:59.550Z,49.89624
2019-04-01T18:39:15.068Z,50.506592
2019-04-01T18:40:32.892Z,49.487305
2019-04-01T18:41:40.705Z,50.097656
2019-04-01T18:42:54.430Z,50.408936
2019-04-01T18:44:08.159Z,50.531006
2019-04-01T18:45:22.351Z,51.245117
2019-04-01T18:46:35.640Z,51.245117
2019-04-01T18:47:50.215Z,51.043701
2019-04-01T18:49:03.104Z,51.245117
2019-04-01T18:50:16.837Z,51.574707
2019-04-01T18:51:30.563Z,51.068115
2019-04-01T18:52:44.279Z,51.678467
2019-04-01T18:53:58.009Z,51.269531
2019-04-01T18:55:11.726Z,51.678467
2019-04-01T18:56:25.459Z,51.477051
2019-04-01T18:57:39.169Z,51.806641
2019-04-01T18:58:53.136Z,52.624512
2019-04-01T19:00:07.639Z,52.520752
2019-04-01T19:01:21.367Z,52.008057
2019-04-01T19:02:35.087Z,52.648926
2019-04-01T19:03:48.822Z,52.441406
2019-04-01T19:05:02.631Z,52.56958
2019-04-01T19:06:16.358Z,53.283691
2019-04-01T19:07:30.101Z,54.101562
2019-04-01T19:08:43.831Z,53.186035
2019-04-01T19:10:05.760Z,53.082275
2019-04-01T19:11:11.317Z,52.89917
2019-04-01T19:12:24.954Z,53.717041
2019-04-01T19:13:39.695Z,54.949951
2019-04-01T19:14:53.433Z,54.229736
2019-04-01T19:16:08.435Z,53.820801
2019-04-01T19:17:20.834Z,54.742432
2019-04-01T19:18:34.576Z,54.56543
2019-04-01T19:19:48.708Z,54.870605
2019-04-01T19:21:04.819Z,55.206299
2019-04-01T19:22:15.739Z,56.536865
2019-04-01T19:23:30.177Z,55.92041
2019-04-01T19:24:43.270Z,56.665039
2019-04-01T19:25:57.004Z,57.177734
2019-04-01T19:27:11.736Z,57.513428
2019-04-01T19:28:25.472Z,58.227539
2019-04-01T19:29:42.553Z,56.896973
2019-04-01T19:30:52.944Z,57.843018
2019-04-01T19:32:06.672Z,57.745361
2019-04-01T19:33:20.393Z,56.713867
2019-04-01T19:34:34.100Z,57.025146
2019-04-01T19:35:47.890Z,59.075928
2019-04-01T19:37:01.609Z,58.154297
2019-04-01T19:38:15.340Z,58.154297
2019-04-01T19:39:30.316Z,58.050537
2019-04-01T19:40:42.781Z,57.641602
2019-04-01T19:41:56.490Z,57.305908
2019-04-01T19:43:10.222Z,57.513428
2019-04-01T19:44:23.956Z,57.922363
2019-04-01T19:45:37.693Z,57.000732
2019-04-01T19:46:52.418Z,56.793213
2019-04-01T19:48:06.150Z,57.202148
2019-04-01T19:49:19.885Z,56.896973
2019-04-01T19:50:33.623Z,57.025146
2019-04-01T19:51:47.353Z,57.330322
2019-04-01T19:53:02.614Z,57.641602
2019-04-01T19:54:14.882Z,57.128906
2019-04-01T19:55:29.575Z,59.002686
2019-04-01T19:56:43.319Z,58.691406
2019-04-01T19:57:57.037Z,58.587646
2019-04-01T19:59:10.769Z,57.666016
2019-04-01T20:00:27.894Z,57.562256
2019-04-01T20:01:38.195Z,57.4646
2019-04-01T20:02:51.933Z,57.562256
2019-04-01T20:04:05.656Z,58.48999
2019-04-01T20:05:20.159Z,57.946777
2019-04-01T20:06:33.229Z,57.128906
2019-04-01T20:07:46.948Z,57.843018
2019-04-01T20:09:01.669Z,58.258057
2019-04-01T20:10:17.000Z,57.946777
2019-04-01T20:11:30.174Z,59.381104
2019-04-01T20:12:43.892Z,57.769775
2019-04-01T20:13:57.618Z,57.666016
2019-04-01T20:15:12.105Z,57.434082
2019-04-01T20:16:25.096Z,57.330322
2019-04-01T20:17:39.089Z,57.537842
2019-04-01T20:18:53.562Z,57.745361
2019-04-01T20:20:08.313Z,57.330322
2019-04-01T20:21:22.040Z,57.434082
2019-04-01T20:22:35.760Z,58.154297
2019-04-01T20:23:50.189Z,57.946777
2019-04-01T20:25:03.202Z,57.434082
2019-04-01T20:26:17.362Z,57.641602
2019-04-01T20:27:30.698Z,56.512451
2019-04-01T20:28:44.421Z,56.817627
2019-04-01T20:29:58.157Z,57.641602
2019-04-01T20:31:12.902Z,56.921387
2019-04-01T20:32:26.623Z,57.330322
2019-04-01T20:33:40.334Z,57.025146
2019-04-01T20:34:57.047Z,56.616211
2019-04-01T20:36:07.802Z,56.512451
2019-04-01T20:37:22.570Z,57.641602
2019-04-01T20:38:36.274Z,56.713867
2019-04-01T20:39:50.007Z,56.817627
2019-04-01T20:41:03.733Z,57.232666
2019-04-01T20:42:17.536Z,57.537842
2019-04-01T20:43:31.262Z,57.232666
2019-04-01T20:44:44.989Z,57.128906
2019-04-01T20:45:58.743Z,57.232666
2019-04-01T20:47:13.480Z,56.512451
2019-04-01T20:48:27.211Z,56.817627
2019-04-01T20:49:40.921Z,56.616211
2019-04-01T20:50:55.062Z,56.103516
2019-04-01T20:52:08.405Z,56.408691
2019-04-01T20:53:22.127Z,56.921387
2019-04-01T20:54:35.869Z,56.616211
2019-04-01T20:55:50.590Z,56.201172
2019-04-01T20:57:05.086Z,57.434082
2019-04-01T20:58:17.012Z,56.921387
2019-04-01T20:59:30.746Z,57.843018
2019-04-01T21:00:44.468Z,57.641602
2019-04-01T21:01:58.221Z,57.434082
2019-04-01T21:03:11.955Z,56.921387
2019-04-01T21:04:26.940Z,57.025146
2019-04-01T21:05:39.429Z,56.304932
2019-04-01T21:06:53.177Z,57.330322
2019-04-01T21:08:06.908Z,56.921387
2019-04-01T21:09:20.658Z,56.817627
2019-04-01T21:10:34.398Z,57.641602
2019-04-01T21:11:48.129Z,57.330322
2019-04-01T21:13:01.895Z,57.434082
2019-04-01T21:14:15.645Z,56.713867
2019-04-01T21:15:30.187Z,56.817627
2019-04-01T21:16:43.141Z,56.817627
2019-04-01T21:17:56.902Z,57.434082
2019-04-01T21:19:10.640Z,56.616211
2019-04-01T21:20:24.345Z,57.434082
2019-04-01T21:21:38.378Z,56.713867
2019-04-01T21:22:51.879Z,56.616211
2019-04-01T21:24:05.812Z,56.713867
2019-04-01T21:25:19.357Z,57.330322
2019-04-01T21:26:33.102Z,56.817627
2019-04-01T21:27:46.857Z,57.128906
2019-04-01T21:29:00.593Z,57.36084
2019-04-01T21:30:14.322Z,56.12793
2019-04-01T21:31:28.055Z,56.640625
2019-04-01T21:32:41.788Z,56.744385
2019-04-01T21:33:55.590Z,57.873535
2019-04-01T21:35:10.287Z,57.36084
2019-04-01T21:36:24.021Z,57.25708
2019-04-01T21:37:37.795Z,57.4646
2019-04-01T21:38:51.538Z,56.945801
2019-04-01T21:40:05.241Z,56.536865
2019-04-01T21:41:20.368Z,56.945801
2019-04-01T21:42:32.713Z,57.049561
2019-04-01T21:43:46.500Z,56.744385
2019-04-01T21:45:00.229Z,57.769775
2019-04-01T21:46:14.156Z,57.873535
2019-04-01T21:47:27.714Z,57.36084
2019-04-01T21:48:40.464Z,57.15332
2019-04-01T21:49:54.217Z,57.177734
2019-04-01T21:51:08.936Z,58.001709
2019-04-01T21:52:23.517Z,57.385254
2019-04-01T21:53:37.267Z,57.592773
2019-04-01T21:54:51.010Z,58.001709
2019-04-01T21:56:04.742Z,56.976318
2019-04-01T21:57:20.519Z,57.592773
2019-04-01T21:58:32.232Z,57.281494
2019-04-01T21:59:46.515Z,57.592773
2019-04-01T22:01:00.265Z,57.592773
2019-04-01T22:02:14.229Z,57.385254
2019-04-01T22:03:28.747Z,57.385254
2019-04-01T22:04:42.482Z,56.561279
2019-04-01T22:05:55.211Z,57.177734
2019-04-01T22:07:09.167Z,56.768799
2019-04-01T22:08:22.712Z,56.976318
2019-04-01T22:09:36.464Z,58.001709
2019-04-01T22:10:51.200Z,57.794189
2019-04-01T22:12:04.923Z,57.177734
2019-04-01T22:13:18.672Z,56.665039
2019-04-01T22:14:32.411Z,57.281494
2019-04-01T22:15:46.160Z,57.897949
2019-04-01T22:16:59.877Z,58.001709
2019-04-01T22:18:14.281Z,57.897949
2019-04-01T22:19:27.384Z,58.105469
2019-04-01T22:20:42.595Z,57.312012
2019-04-01T22:21:54.834Z,58.233643
2019-04-01T22:23:08.581Z,58.337402
2019-04-01T22:24:22.380Z,57.513428
2019-04-01T22:25:36.114Z,58.026123
2019-04-01T22:26:49.849Z,57.312012
2019-04-01T22:28:03.601Z,57.720947
2019-04-01T22:29:17.337Z,57.928467
2019-04-01T22:30:31.074Z,57.617188
2019-04-01T22:31:44.815Z,57.208252
2019-04-01T22:32:58.552Z,57.617188
2019-04-01T22:34:12.300Z,58.129883
2019-04-01T22:35:37.767Z,57.513428
2019-04-01T22:36:40.719Z,58.746338
2019-04-01T22:37:54.442Z,58.129883
2019-04-01T22:39:09.172Z,58.337402
2019-04-01T22:40:23.918Z,58.026123
2019-04-01T22:41:37.624Z,57.409668
2019-04-01T22:42:51.346Z,57.720947
2019-04-01T22:44:05.102Z,58.337402
2019-04-01T22:45:19.533Z,58.026123
2019-04-01T22:46:34.520Z,58.233643
2019-04-01T22:47:46.301Z,57.720947
2019-04-01T22:49:00.041Z,57.928467
2019-04-01T22:50:14.771Z,57.409668
2019-04-01T22:51:28.498Z,57.617188
2019-04-01T22:52:42.373Z,57.720947
2019-04-01T22:53:56.011Z,57.928467
2019-04-01T22:55:09.756Z,57.824707
2019-04-01T22:56:23.505Z,58.233643
2019-04-01T22:57:37.218Z,58.1604
2019-04-01T22:58:51.214Z,57.849121
2019-04-01T23:00:05.720Z,57.440186
2019-04-01T23:01:19.441Z,57.928467
2019-04-01T23:02:33.174Z,57.928467
2019-04-01T23:03:46.908Z,58.129883
2019-04-01T23:05:00.667Z,57.720947
2019-04-01T23:06:14.386Z,57.720947
2019-04-01T23:07:29.138Z,57.312012
2019-04-01T23:08:42.881Z,57.928467
2019-04-01T23:09:57.881Z,58.258057
2019-04-01T23:11:10.381Z,58.776855
2019-04-01T23:12:24.123Z,58.056641
2019-04-01T23:13:37.873Z,58.776855
2019-04-01T23:14:51.616Z,58.874512
2019-04-01T23:16:05.353Z,58.776855
2019-04-01T23:17:19.085Z,58.1604
2019-04-01T23:18:32.799Z,58.056641
2019-04-01T23:19:46.589Z,58.673096
2019-04-01T23:21:01.231Z,58.361816
2019-04-01T23:22:14.056Z,58.569336
2019-04-01T23:23:28.330Z,58.569336
2019-04-01T23:24:41.550Z,58.361816
2019-04-01T23:25:55.611Z,58.673096
2019-04-01T23:27:09.006Z,58.569336
2019-04-01T23:28:23.216Z,58.673096
2019-04-01T23:29:36.476Z,58.258057
2019-04-01T23:30:50.251Z,58.978271
2019-04-01T23:32:03.980Z,58.874512
2019-04-01T23:33:18.707Z,59.216309
2019-04-01T23:34:32.446Z,59.112549
2019-04-01T23:35:46.205Z,59.008789
2019-04-01T23:36:59.940Z,59.313965
2019-04-01T23:38:13.670Z,58.80127
2019-04-01T23:39:27.402Z,58.80127
2019-04-01T23:40:41.182Z,58.496094
2019-04-01T23:41:54.872Z,59.112549
2019-04-01T23:43:08.598Z,59.216309
2019-04-01T23:44:23.398Z,58.905029
2019-04-01T23:45:36.107Z,58.80127
2019-04-01T23:46:49.830Z,58.59375
2019-04-01T23:48:03.572Z,58.905029
2019-04-01T23:49:17.309Z,59.313965
2019-04-01T23:50:31.056Z,58.69751
2019-04-01T23:51:44.796Z,59.417725
2019-04-01T23:52:58.527Z,58.80127
2019-04-01T23:54:12.288Z,58.392334
2019-04-01T23:55:26.029Z,59.112549
2019-04-01T23:56:39.765Z,59.008789
2019-04-01T23:57:54.454Z,59.112549
2019-04-01T23:59:08.025Z,58.905029
